createdAt,value
2017-08-25T00:01:22.560Z,4.40
2017-08-25T00:03:48.939Z,4.50
2017-08-25T00:06:15.347Z,5.07
2017-08-25T00:08:41.665Z,4.70
2017-08-25T00:11:08.494Z,5.23
2017-08-25T00:13:34.873Z,4.90
2017-08-25T00:16:01.209Z,5.30
2017-08-25T00:18:27.559Z,5.07
2017-08-25T00:20:53.938Z,5.43
2017-08-25T00:23:20.263Z,4.70
2017-08-25T00:25:46.695Z,5.40
2017-08-25T00:28:13.068Z,4.90
2017-08-25T00:30:39.428Z,4.73
2017-08-25T00:33:05.800Z,5.03
2017-08-25T00:35:32.171Z,5.70
2017-08-25T00:37:58.527Z,5.23
2017-08-25T00:40:24.870Z,6.27
2017-08-25T00:42:51.322Z,5.20
2017-08-25T00:45:17.672Z,5.30
2017-08-25T00:47:44.009Z,4.90
2017-08-25T00:50:10.515Z,5.70
2017-08-25T00:52:36.893Z,5.13
2017-08-25T00:55:03.267Z,5.57
2017-08-25T00:57:29.715Z,5.30
2017-08-25T00:59:56.109Z,5.30
2017-08-25T01:02:22.460Z,6.00
2017-08-25T01:04:48.805Z,6.23
2017-08-25T01:07:15.201Z,6.37
2017-08-25T01:09:41.604Z,5.87
2017-08-25T01:12:07.971Z,5.63
2017-08-25T01:14:34.358Z,5.73
2017-08-25T01:17:00.963Z,5.63
2017-08-25T01:19:27.381Z,5.20
2017-08-25T01:21:53.749Z,5.43
2017-08-25T01:24:20.201Z,5.63
2017-08-25T01:26:46.572Z,5.40
2017-08-25T01:29:12.942Z,6.20
2017-08-25T01:31:39.390Z,5.50
2017-08-25T01:34:05.769Z,6.53
2017-08-25T01:36:33.298Z,5.40
2017-08-25T01:38:59.734Z,5.43
2017-08-25T01:41:26.208Z,6.10
2017-08-25T01:43:52.574Z,4.67
2017-08-25T01:46:18.926Z,5.37
2017-08-25T01:48:45.325Z,5.87
2017-08-25T01:51:11.757Z,6.00
2017-08-25T01:53:38.180Z,5.00
2017-08-25T01:56:04.555Z,5.97
2017-08-25T01:58:30.976Z,6.17
2017-08-25T02:00:57.387Z,5.40
2017-08-25T02:03:23.927Z,5.63
2017-08-25T02:05:50.293Z,5.00
2017-08-25T02:08:16.693Z,5.73
2017-08-25T02:10:43.077Z,6.23
2017-08-25T02:13:09.486Z,5.70
2017-08-25T02:15:36.185Z,5.73
2017-08-25T02:18:02.613Z,5.83
2017-08-25T02:20:29.042Z,5.73
2017-08-25T02:22:55.389Z,6.13
2017-08-25T02:25:21.776Z,6.03
2017-08-25T02:27:48.098Z,5.77
2017-08-25T02:30:14.515Z,6.17
2017-08-25T02:32:40.899Z,5.77
2017-08-25T02:35:07.349Z,5.47
2017-08-25T02:37:33.680Z,5.20
2017-08-25T02:40:00.080Z,5.10
2017-08-25T02:42:26.467Z,5.90
2017-08-25T02:44:52.812Z,5.73
2017-08-25T02:47:19.177Z,5.30
2017-08-25T02:49:45.545Z,5.77
2017-08-25T02:52:11.897Z,5.80
2017-08-25T02:54:38.213Z,5.70
2017-08-25T02:57:04.620Z,5.63
2017-08-25T02:59:30.963Z,5.53
2017-08-25T03:01:57.322Z,5.87
2017-08-25T03:04:23.690Z,6.13
2017-08-25T03:06:50.023Z,5.57
2017-08-25T03:09:16.412Z,5.57
2017-08-25T03:11:42.793Z,6.27
2017-08-25T03:14:09.160Z,5.83
2017-08-25T03:16:35.564Z,5.83
2017-08-25T03:19:01.946Z,6.30
2017-08-25T03:21:28.269Z,5.90
2017-08-25T03:23:54.636Z,6.40
2017-08-25T03:26:20.951Z,5.70
2017-08-25T03:28:47.433Z,6.50
2017-08-25T03:31:13.803Z,5.97
2017-08-25T03:33:40.142Z,6.07
2017-08-25T03:36:06.554Z,5.73
2017-08-25T03:38:32.875Z,6.10
2017-08-25T03:40:59.309Z,5.70
2017-08-25T03:43:25.656Z,5.87
2017-08-25T03:45:52.016Z,6.40
2017-08-25T03:48:18.405Z,5.90
2017-08-25T03:50:44.729Z,5.73
2017-08-25T03:53:11.047Z,6.17
2017-08-25T03:55:37.472Z,5.27
2017-08-25T03:58:03.836Z,5.67
2017-08-25T04:00:30.236Z,6.10
2017-08-25T04:02:56.579Z,6.10
2017-08-25T04:05:22.961Z,6.20
2017-08-25T04:07:49.307Z,5.70
2017-08-25T04:10:15.711Z,5.53
2017-08-25T04:12:42.091Z,5.67
2017-08-25T04:15:08.456Z,6.23
2017-08-25T04:17:35.096Z,6.57
2017-08-25T04:20:01.426Z,5.37
2017-08-25T04:22:27.813Z,5.57
2017-08-25T04:24:54.247Z,6.50
2017-08-25T04:27:20.586Z,5.63
2017-08-25T04:29:46.987Z,5.97
2017-08-25T04:32:13.344Z,6.70
2017-08-25T04:34:39.683Z,6.00
2017-08-25T04:37:06.121Z,5.97
2017-08-25T04:39:32.450Z,5.80
2017-08-25T04:41:58.869Z,6.60
2017-08-25T04:44:25.258Z,6.60
2017-08-25T04:46:51.614Z,6.30
2017-08-25T04:49:18.101Z,6.60
2017-08-25T04:51:44.422Z,5.50
2017-08-25T04:54:10.771Z,5.70
2017-08-25T04:56:37.130Z,5.73
2017-08-25T04:59:03.434Z,6.07
2017-08-25T05:01:30.107Z,6.07
2017-08-25T05:03:56.534Z,6.33
2017-08-25T05:06:22.893Z,6.07
2017-08-25T05:08:49.283Z,6.40
2017-08-25T05:11:15.712Z,5.90
2017-08-25T05:13:42.217Z,6.37
2017-08-25T05:16:08.581Z,6.23
2017-08-25T05:18:34.959Z,6.07
2017-08-25T05:21:01.379Z,6.00
2017-08-25T05:23:27.786Z,5.60
2017-08-25T05:25:54.145Z,5.73
2017-08-25T05:28:20.533Z,5.50
2017-08-25T05:30:47.075Z,5.90
2017-08-25T05:33:13.397Z,6.03
2017-08-25T05:35:39.742Z,5.67
2017-08-25T05:38:06.116Z,5.83
2017-08-25T05:40:32.495Z,5.47
2017-08-25T05:42:58.844Z,6.40
2017-08-25T05:45:25.321Z,5.87
2017-08-25T05:47:51.627Z,7.27
2017-08-25T05:50:17.984Z,6.30
2017-08-25T05:52:44.354Z,7.00
2017-08-25T05:55:10.666Z,6.10
2017-08-25T05:57:37.049Z,6.47
2017-08-25T06:00:03.384Z,7.03
2017-08-25T06:02:30.189Z,7.17
2017-08-25T06:04:56.520Z,6.60
2017-08-25T06:07:22.884Z,7.20
2017-08-25T06:09:49.239Z,6.50
2017-08-25T06:12:15.586Z,6.47
2017-08-25T06:14:41.974Z,6.63
2017-08-25T06:17:08.565Z,7.10
2017-08-25T06:19:34.937Z,6.73
2017-08-25T06:22:01.632Z,7.00
2017-08-25T06:24:28.038Z,6.47
2017-08-25T06:26:54.443Z,5.70
2017-08-25T06:29:20.911Z,5.80
2017-08-25T06:31:47.565Z,6.03
2017-08-25T06:34:13.882Z,6.10
2017-08-25T06:36:40.251Z,6.30
2017-08-25T06:39:06.618Z,6.27
2017-08-25T06:41:32.948Z,6.30
2017-08-25T06:43:59.339Z,5.97
2017-08-25T06:46:25.695Z,5.97
2017-08-25T06:48:52.155Z,6.03
2017-08-25T06:51:18.606Z,5.90
2017-08-25T06:53:44.914Z,5.43
2017-08-25T06:56:11.531Z,6.63
2017-08-25T06:58:37.928Z,6.83
2017-08-25T07:01:04.260Z,5.73
2017-08-25T07:03:30.659Z,7.63
2017-08-25T07:05:57.023Z,6.77
2017-08-25T07:08:23.361Z,5.53
2017-08-25T07:10:49.723Z,5.80
2017-08-25T07:13:16.040Z,6.10
2017-08-25T07:15:42.367Z,5.50
2017-08-25T07:18:08.737Z,5.73
2017-08-25T07:20:35.198Z,6.00
2017-08-25T07:23:01.564Z,5.27
2017-08-25T07:25:27.908Z,6.50
2017-08-25T07:27:54.295Z,5.57
2017-08-25T07:30:20.701Z,6.40
2017-08-25T07:32:47.049Z,5.47
2017-08-25T07:35:13.411Z,6.00
2017-08-25T07:37:39.798Z,6.40
2017-08-25T07:40:06.116Z,5.23
2017-08-25T07:42:32.508Z,5.70
2017-08-25T07:44:58.925Z,5.80
2017-08-25T07:47:25.307Z,5.83
2017-08-25T07:49:51.695Z,6.00
2017-08-25T07:52:18.366Z,5.60
2017-08-25T07:54:44.778Z,6.00
2017-08-25T07:57:11.111Z,4.97
2017-08-25T07:59:37.452Z,5.43
2017-08-25T08:02:03.861Z,5.00
2017-08-25T08:04:30.199Z,5.07
2017-08-25T08:06:56.580Z,4.93
2017-08-25T08:09:22.896Z,4.40
2017-08-25T08:11:49.382Z,5.30
2017-08-25T08:14:15.726Z,4.80
2017-08-25T08:16:42.079Z,4.60
2017-08-25T08:19:08.577Z,4.20
2017-08-25T08:21:34.899Z,4.80
2017-08-25T08:24:01.290Z,4.70
2017-08-25T08:26:27.656Z,4.67
2017-08-25T08:28:53.998Z,4.90
2017-08-25T08:31:20.408Z,4.57
2017-08-25T08:33:46.851Z,4.57
2017-08-25T08:36:19.322Z,5.23
2017-08-25T08:38:45.674Z,5.00
2017-08-25T08:41:12.091Z,3.93
2017-08-25T08:43:38.467Z,4.40
2017-08-25T08:46:04.838Z,3.77
2017-08-25T08:48:31.220Z,4.50
2017-08-25T08:50:57.574Z,4.33
2017-08-25T08:53:23.899Z,3.97
2017-08-25T08:55:50.279Z,4.70
2017-08-25T08:58:16.600Z,5.00
2017-08-25T09:00:42.984Z,4.40
2017-08-25T09:03:09.576Z,4.43
2017-08-25T09:05:42.166Z,4.63
2017-08-25T09:08:08.572Z,4.00
2017-08-25T09:10:34.914Z,4.80
2017-08-25T09:13:01.292Z,4.70
2017-08-25T09:15:28.300Z,4.83
2017-08-25T09:17:54.714Z,5.20
2017-08-25T09:20:21.150Z,4.93
2017-08-25T09:22:47.500Z,4.87
2017-08-25T09:25:13.928Z,5.00
2017-08-25T09:27:40.289Z,4.93
2017-08-25T09:30:06.813Z,5.17
2017-08-25T09:32:33.188Z,4.83
2017-08-25T09:34:59.563Z,5.90
2017-08-25T09:37:25.915Z,4.57
2017-08-25T09:39:52.334Z,5.10
2017-08-25T09:42:18.649Z,5.10
2017-08-25T09:44:44.983Z,5.27
2017-08-25T09:47:11.340Z,5.10
2017-08-25T09:49:37.792Z,5.70
2017-08-25T09:52:04.173Z,5.23
2017-08-25T09:54:30.548Z,5.47
2017-08-25T09:56:56.958Z,5.83
2017-08-25T09:59:23.347Z,6.10
2017-08-25T10:01:49.723Z,6.70
2017-08-25T10:04:16.091Z,6.77
2017-08-25T10:06:42.495Z,6.80
2017-08-25T10:09:08.826Z,6.60
2017-08-25T10:11:35.213Z,6.57
2017-08-25T10:14:01.580Z,7.47
2017-08-25T10:16:27.896Z,7.60
2017-08-25T10:18:54.338Z,8.17
2017-08-25T10:21:20.973Z,7.20
2017-08-25T10:23:47.314Z,7.40
2017-08-25T10:26:13.812Z,8.60
2017-08-25T10:28:40.197Z,8.17
2017-08-25T10:31:06.563Z,7.37
2017-08-25T10:33:41.900Z,7.67
2017-08-25T10:36:20.657Z,8.30
2017-08-25T10:38:59.403Z,8.20
2017-08-25T10:41:37.931Z,8.33
2017-08-25T10:44:16.644Z,7.87
2017-08-25T10:46:43.068Z,7.73
2017-08-25T10:49:09.447Z,8.10
2017-08-25T10:51:35.838Z,8.57
2017-08-25T10:54:02.159Z,8.33
2017-08-25T10:56:28.516Z,8.53
2017-08-25T10:58:54.845Z,8.20
2017-08-25T11:01:21.239Z,8.87
2017-08-25T11:03:47.605Z,7.40
2017-08-25T11:06:13.940Z,7.80
2017-08-25T11:08:40.307Z,8.10
2017-08-25T11:11:06.716Z,7.90
2017-08-25T11:13:33.269Z,7.60
2017-08-25T11:15:59.683Z,7.80
2017-08-25T11:18:26.250Z,7.67
2017-08-25T11:20:52.707Z,7.40
2017-08-25T11:23:19.082Z,8.17
2017-08-25T11:25:45.534Z,7.97
2017-08-25T11:28:12.328Z,7.77
2017-08-25T11:30:38.666Z,7.33
2017-08-25T11:33:05.083Z,7.47
2017-08-25T11:35:31.529Z,7.37
2017-08-25T11:37:57.865Z,7.10
2017-08-25T11:40:24.289Z,6.43
2017-08-25T11:42:50.688Z,6.97
2017-08-25T11:45:17.091Z,7.37
2017-08-25T11:47:43.494Z,7.10
2017-08-25T11:50:09.856Z,7.50
2017-08-25T11:52:36.334Z,7.40
2017-08-25T11:55:02.962Z,6.87
2017-08-25T11:57:29.458Z,7.13
2017-08-25T11:59:55.938Z,7.17
2017-08-25T12:02:22.626Z,6.80
2017-08-25T12:04:49.259Z,6.43
2017-08-25T12:07:15.628Z,6.70
2017-08-25T12:09:41.983Z,7.00
2017-08-25T12:12:08.376Z,7.10
2017-08-25T12:14:34.814Z,6.73
2017-08-25T12:17:01.181Z,6.87
2017-08-25T12:19:27.560Z,7.57
2017-08-25T12:21:54.018Z,7.30
2017-08-25T12:24:20.404Z,6.73
2017-08-25T12:26:46.738Z,7.00
2017-08-25T12:29:13.117Z,7.50
2017-08-25T12:31:39.504Z,6.67
2017-08-25T12:34:05.819Z,7.03
2017-08-25T12:36:32.182Z,6.57
2017-08-25T12:38:58.514Z,7.23
2017-08-25T12:41:24.895Z,7.33
2017-08-25T12:43:51.262Z,6.60
2017-08-25T12:46:18.017Z,6.80
2017-08-25T12:48:44.379Z,7.20
2017-08-25T12:51:10.744Z,7.70
2017-08-25T12:53:37.147Z,7.40
2017-08-25T12:56:03.500Z,6.17
2017-08-25T12:58:29.890Z,6.60
2017-08-25T13:00:56.375Z,7.37
2017-08-25T13:03:22.700Z,6.60
2017-08-25T13:05:49.247Z,6.80
2017-08-25T13:08:15.882Z,6.37
2017-08-25T13:10:42.380Z,6.87
2017-08-25T13:13:08.710Z,6.43
2017-08-25T13:15:35.077Z,6.70
2017-08-25T13:18:01.430Z,6.83
2017-08-25T13:20:27.816Z,6.80
2017-08-25T13:22:54.188Z,7.27
2017-08-25T13:25:20.590Z,7.03
2017-08-25T13:27:46.967Z,7.07
2017-08-25T13:30:13.308Z,6.97
2017-08-25T13:32:39.737Z,6.80
2017-08-25T13:35:06.053Z,6.50
2017-08-25T13:37:32.416Z,7.23
2017-08-25T13:39:58.745Z,6.47
2017-08-25T13:42:25.156Z,6.70
2017-08-25T13:44:51.546Z,7.00
2017-08-25T13:47:17.916Z,6.77
2017-08-25T13:49:44.745Z,7.50
2017-08-25T13:52:11.084Z,6.50
2017-08-25T13:54:37.481Z,6.73
2017-08-25T13:57:03.885Z,7.33
2017-08-25T13:59:30.460Z,6.57
2017-08-25T14:01:56.859Z,8.10
2017-08-25T14:04:23.174Z,7.17
2017-08-25T14:06:49.498Z,7.80
2017-08-25T14:09:15.871Z,7.00
2017-08-25T14:11:42.189Z,7.40
2017-08-25T14:14:08.510Z,7.53
2017-08-25T14:16:34.898Z,7.13
2017-08-25T14:19:01.249Z,7.00
2017-08-25T14:21:27.657Z,6.93
2017-08-25T14:23:53.978Z,6.57
2017-08-25T14:26:20.365Z,6.37
2017-08-25T14:28:46.747Z,6.73
2017-08-25T14:31:13.148Z,7.43
2017-08-25T14:33:39.463Z,7.40
2017-08-25T14:36:05.813Z,8.07
2017-08-25T14:38:32.210Z,7.93
2017-08-25T14:40:58.530Z,7.67
2017-08-25T14:43:24.920Z,7.47
2017-08-25T14:45:51.330Z,6.77
2017-08-25T14:48:17.731Z,7.33
2017-08-25T14:50:44.217Z,7.77
2017-08-25T14:53:11.043Z,7.23
2017-08-25T14:55:37.602Z,7.10
2017-08-25T14:58:04.018Z,7.20
2017-08-25T15:00:30.357Z,6.90
2017-08-25T15:02:56.676Z,7.37
2017-08-25T15:05:23.029Z,6.77
2017-08-25T15:07:49.356Z,6.50
2017-08-25T15:10:15.683Z,7.30
2017-08-25T15:12:42.108Z,6.90
2017-08-25T15:15:08.484Z,7.27
2017-08-25T15:17:34.873Z,6.97
2017-08-25T15:20:01.227Z,6.70
2017-08-25T15:22:27.542Z,7.10
2017-08-25T15:24:54.174Z,7.93
2017-08-25T15:27:20.495Z,7.33
2017-08-25T15:29:46.821Z,6.97
2017-08-25T15:32:13.193Z,7.33
2017-08-25T15:34:39.775Z,7.57
2017-08-25T15:37:06.192Z,6.37
2017-08-25T15:39:32.557Z,7.00
2017-08-25T15:41:58.917Z,6.60
2017-08-25T15:44:25.317Z,7.10
2017-08-25T15:46:51.743Z,6.70
2017-08-25T15:49:18.188Z,6.50
2017-08-25T15:51:44.620Z,7.60
2017-08-25T15:54:11.089Z,7.77
2017-08-25T15:56:37.560Z,7.07
2017-08-25T15:59:04.053Z,7.80
2017-08-25T16:01:30.408Z,6.70
2017-08-25T16:03:56.852Z,7.67
2017-08-25T16:06:23.321Z,7.80
2017-08-25T16:08:49.647Z,7.87
2017-08-25T16:11:16.113Z,7.17
2017-08-25T16:13:43.490Z,6.80
2017-08-25T16:16:09.822Z,7.77
2017-08-25T16:18:36.181Z,6.83
2017-08-25T16:21:02.566Z,7.50
2017-08-25T16:23:28.913Z,6.83
2017-08-25T16:25:55.235Z,7.07
2017-08-25T16:28:21.595Z,8.00
2017-08-25T16:30:47.906Z,7.33
2017-08-25T16:33:14.269Z,6.50
2017-08-25T16:35:40.593Z,7.60
2017-08-25T16:38:06.938Z,8.40
2017-08-25T16:40:33.345Z,8.13
2017-08-25T16:42:59.744Z,8.50
2017-08-25T16:45:26.092Z,8.50
2017-08-25T16:47:52.495Z,7.87
2017-08-25T16:50:18.917Z,8.87
2017-08-25T16:52:45.339Z,8.10
2017-08-25T16:55:11.660Z,9.50
2017-08-25T16:57:38.050Z,8.27
2017-08-25T17:00:04.384Z,8.00
2017-08-25T17:02:30.716Z,8.73
2017-08-25T17:04:57.151Z,9.17
2017-08-25T17:07:23.503Z,8.00
2017-08-25T17:09:49.915Z,8.00
2017-08-25T17:12:16.294Z,8.60
2017-08-25T17:14:42.804Z,8.00
2017-08-25T17:17:09.146Z,8.77
2017-08-25T17:19:35.538Z,9.07
2017-08-25T17:22:01.888Z,9.37
2017-08-25T17:24:28.206Z,10.53
2017-08-25T17:26:54.591Z,10.27
2017-08-25T17:29:20.987Z,10.60
2017-08-25T17:31:47.335Z,9.63
2017-08-25T17:34:13.735Z,8.90
2017-08-25T17:36:40.099Z,9.23
2017-08-25T17:39:06.506Z,9.70
2017-08-25T17:41:32.835Z,9.40
2017-08-25T17:43:59.183Z,8.87
2017-08-25T17:46:25.552Z,8.77
2017-08-25T17:48:51.881Z,9.43
2017-08-25T17:51:18.207Z,8.97
2017-08-25T17:53:44.768Z,8.13
2017-08-25T17:56:11.199Z,8.23
2017-08-25T17:58:37.618Z,8.60
2017-08-25T18:01:03.969Z,7.93
2017-08-25T18:03:30.329Z,9.07
2017-08-25T18:05:56.707Z,10.43
2017-08-25T18:08:23.032Z,9.70
2017-08-25T18:10:49.577Z,9.40
2017-08-25T18:13:15.912Z,9.57
2017-08-25T18:15:42.311Z,10.13
2017-08-25T18:18:08.666Z,11.30
2017-08-25T18:20:34.991Z,9.90
2017-08-25T18:23:01.393Z,13.80
2017-08-25T18:25:27.761Z,12.30
2017-08-25T18:27:54.116Z,10.50
2017-08-25T18:30:20.551Z,10.43
2017-08-25T18:32:46.869Z,9.67
2017-08-25T18:35:13.196Z,8.60
2017-08-25T18:37:39.647Z,9.87
2017-08-25T18:40:06.038Z,9.87
2017-08-25T18:42:32.444Z,9.20
2017-08-25T18:44:58.800Z,9.67
2017-08-25T18:47:25.207Z,10.27
2017-08-25T18:49:51.582Z,10.47
2017-08-25T18:52:17.957Z,9.53
2017-08-25T18:54:44.285Z,10.00
2017-08-25T18:57:10.606Z,9.10
2017-08-25T18:59:37.021Z,9.77
2017-08-25T19:02:03.396Z,10.60
2017-08-25T19:04:29.712Z,9.27
2017-08-25T19:06:56.353Z,10.00
2017-08-25T19:09:22.696Z,9.17
2017-08-25T19:11:49.039Z,9.50
2017-08-25T19:14:15.412Z,9.80
2017-08-25T19:16:41.736Z,9.40
2017-08-25T19:19:08.113Z,9.37
2017-08-25T19:21:34.721Z,9.60
2017-08-25T19:24:01.140Z,11.30
2017-08-25T19:26:27.482Z,11.20
2017-08-25T19:28:53.951Z,10.80
2017-08-25T19:31:20.312Z,10.93
2017-08-25T19:33:46.715Z,10.73
2017-08-25T19:36:13.198Z,10.83
2017-08-25T19:38:39.686Z,11.37
2017-08-25T19:41:06.071Z,12.00
2017-08-25T19:43:32.534Z,11.03
2017-08-25T19:45:58.859Z,11.20
2017-08-25T19:48:25.240Z,11.10
2017-08-25T19:50:51.751Z,11.50
2017-08-25T19:53:18.125Z,11.40
2017-08-25T19:55:44.608Z,11.07
2017-08-25T19:58:10.988Z,12.17
2017-08-25T20:00:37.349Z,10.60
2017-08-25T20:03:03.676Z,12.03
2017-08-25T20:05:30.046Z,11.20
2017-08-25T20:07:56.491Z,11.50
2017-08-25T20:10:23.020Z,11.67
2017-08-25T20:12:49.374Z,11.73
2017-08-25T20:15:15.777Z,10.93
2017-08-25T20:17:42.178Z,11.60
2017-08-25T20:20:09.280Z,12.03
2017-08-25T20:22:35.643Z,11.20
2017-08-25T20:25:02.103Z,11.33
2017-08-25T20:27:28.553Z,12.27
2017-08-25T20:29:55.009Z,11.53
2017-08-25T20:32:21.327Z,12.43
2017-08-25T20:34:47.731Z,11.80
2017-08-25T20:37:14.101Z,11.33
2017-08-25T20:39:40.430Z,11.00
2017-08-25T20:42:06.797Z,12.07
2017-08-25T20:44:33.116Z,10.47
2017-08-25T20:46:59.438Z,11.10
2017-08-25T20:49:25.814Z,11.30
2017-08-25T20:51:52.126Z,11.80
2017-08-25T20:54:18.497Z,11.90
2017-08-25T20:56:44.980Z,11.80
2017-08-25T20:59:11.320Z,11.73
2017-08-25T21:01:37.779Z,12.27
2017-08-25T21:04:04.117Z,12.03
2017-08-25T21:06:30.434Z,12.60
2017-08-25T21:08:56.836Z,12.00
2017-08-25T21:11:23.259Z,11.73
2017-08-25T21:13:49.785Z,12.40
2017-08-25T21:16:16.108Z,11.50
2017-08-25T21:18:42.513Z,12.07
2017-08-25T21:21:08.946Z,12.63
2017-08-25T21:23:35.398Z,12.43
2017-08-25T21:26:01.972Z,12.20
2017-08-25T21:28:29.042Z,12.20
2017-08-25T21:30:55.504Z,11.90
2017-08-25T21:33:21.902Z,13.77
2017-08-25T21:35:48.297Z,12.47
2017-08-25T21:38:14.731Z,12.83
2017-08-25T21:40:41.201Z,11.60
2017-08-25T21:43:07.580Z,13.17
2017-08-25T21:45:34.026Z,11.90
2017-08-25T21:48:00.459Z,11.57
2017-08-25T21:50:26.780Z,12.10
2017-08-25T21:52:53.150Z,12.03
2017-08-25T21:55:19.476Z,11.70
2017-08-25T21:57:46.750Z,11.73
2017-08-25T22:00:13.163Z,12.40
2017-08-25T22:02:39.551Z,12.33
2017-08-25T22:05:05.978Z,12.20
2017-08-25T22:07:32.741Z,12.30
2017-08-25T22:09:59.137Z,12.90
2017-08-25T22:12:25.466Z,12.97
2017-08-25T22:14:51.829Z,13.20
2017-08-25T22:17:18.245Z,12.20
2017-08-25T22:19:44.585Z,12.00
2017-08-25T22:22:10.912Z,12.40
2017-08-25T22:24:37.281Z,11.90
2017-08-25T22:27:03.605Z,13.40
2017-08-25T22:29:29.929Z,13.67
2017-08-25T22:31:56.331Z,13.20
2017-08-25T22:34:22.702Z,13.00
2017-08-25T22:36:49.401Z,12.00
2017-08-25T22:39:15.734Z,12.23
2017-08-25T22:41:42.128Z,13.00
2017-08-25T22:44:08.562Z,12.87
2017-08-25T22:46:34.911Z,13.40
2017-08-25T22:49:01.285Z,14.50
2017-08-25T22:51:27.627Z,14.13
2017-08-25T22:53:54.004Z,13.63
2017-08-25T22:56:20.440Z,13.83
2017-08-25T22:58:46.846Z,13.97
2017-08-25T23:01:13.196Z,14.33
2017-08-25T23:03:39.804Z,15.13
2017-08-25T23:06:06.132Z,15.20
2017-08-25T23:08:32.476Z,13.83
2017-08-25T23:10:58.862Z,14.67
2017-08-25T23:13:25.219Z,14.47
2017-08-25T23:15:51.616Z,15.10
2017-08-25T23:18:18.008Z,15.00
2017-08-25T23:20:44.383Z,15.23
2017-08-25T23:23:10.692Z,14.20
2017-08-25T23:25:37.020Z,15.07
2017-08-25T23:28:03.371Z,13.10
2017-08-25T23:30:31.622Z,14.33
2017-08-25T23:32:57.994Z,13.43
2017-08-25T23:35:24.577Z,13.00
2017-08-25T23:37:50.916Z,14.70
2017-08-25T23:40:17.272Z,14.40
2017-08-25T23:42:43.635Z,14.10
2017-08-25T23:45:10.020Z,15.23
2017-08-25T23:47:36.361Z,14.80
2017-08-25T23:50:02.742Z,13.73
2017-08-25T23:52:29.116Z,13.83
2017-08-25T23:54:55.452Z,13.93
2017-08-25T23:57:21.975Z,14.80
2017-08-25T23:59:48.333Z,15.60
